Date,TemperatureHighF,TemperatureAvgF,TemperatureLowF,DewpointHighF,DewpointAvgF,DewpointLowF,HumidityHigh,HumidityAvg,HumidityLow,PressureMaxIn,PressureMinIn,WindSpeedMaxMPH,WindSpeedAvgMPH,GustSpeedMaxMPH,PrecipitationSumIn
2012-1-5,46.2,44.1,41.7,33.3,29.8,27.1,70,57,49,29.28,29.22,7,3,8,0.00
2012-1-6,46.2,40.5,35.2,28.4,25.8,21.8,68,56,43,29.52,29.27,22,7,24,0.00
2012-1-7,38.7,29.1,21.9,25.0,17.8,11.7,75,62,49,29.87,29.51,20,4,20,0.00
2012-1-8,45.3,30.7,18.1,26.0,20.1,11.0,80,65,44,29.98,29.71,8,2,8,0.00
2012-1-9,50.9,38.6,32.4,27.1,22.6,17.2,66,53,38,29.71,29.53,15,4,15,0.00
2012-1-10,55.6,39.0,27.5,30.9,26.0,18.7,77,61,37,29.62,29.28,6,2,8,0.00
2012-1-11,39.0,27.1,11.1,31.9,17.5,-2.6,83,67,51,29.56,29.26,23,8,25,0.02
2012-1-12,12.9,10.3,7.9,-0.3,-3.8,-6.2,56,52,48,29.60,29.52,19,10,24,0.00
2012-1-13,11.3,8.6,3.7,0.2,-3.7,-8.7,62,56,49,29.73,29.60,16,4,17,0.00
2012-1-14,20.1,13.5,2.8,13.2,3.5,-6.8,74,63,55,29.79,29.67,8,2,10,0.00
2012-1-15,40.8,28.2,19.0,23.3,17.8,11.4,79,66,46,29.79,29.38,15,6,18,0.02
2012-1-16,29.7,24.9,15.8,21.1,11.6,0.5,72,57,40,29.71,29.38,17,6,17,0.00
2012-1-17,15.8,9.4,-2.2,2.4,-7.1,-15.8,66,47,27,29.97,29.69,17,7,19,0.00
2012-1-18,26.6,8.5,-6.5,14.7,-6.3,-23.4,73,50,40,29.94,29.37,26,7,26,0.01
2012-1-19,4.3,-5.3,-15.2,-23.7,-30.4,-33.2,42,28,19,29.93,29.69,18,5,19,0.00
2012-1-20,-1.3,-1.3,-1.3,-31.6,-31.6,-31.6,21,21,21,29.99,29.85,0,0,0,0.00
2012-1-21,-1.3,-1.3,-1.3,-31.6,-31.6,-31.6,21,21,21,29.99,29.51,0,0,0,0.00
2012-1-22,24.3,5.2,-1.3,19.0,-18.8,-31.6,80,36,21,29.51,29.24,7,1,7,0.00
2012-1-23,26.6,22.7,19.0,19.3,14.9,8.6,79,72,63,29.64,29.23,17,6,18,0.00
2012-1-24,24.3,18.6,7.5,15.3,9.3,-1.7,75,66,60,30.01,29.63,14,3,14,0.00
2012-1-25,33.4,28.7,21.9,23.6,19.5,15.1,76,68,60,30.00,29.55,5,4,6,0.07
2012-1-26,42.6,30.6,22.1,27.6,20.7,11.8,80,67,54,29.56,29.39,19,4,20,0.01
2012-1-27,34.7,25.9,17.1,29.0,16.0,7.0,82,66,47,29.66,29.42,28,6,28,0.04
2012-1-28,29.3,21.3,15.6,12.5,7.9,3.0,66,56,42,29.73,29.63,20,5,21,0.00
2012-1-29,23.9,16.1,9.1,11.8,0.1,-6.5,66,49,31,29.91,29.67,15,5,15,0.00
2012-1-30,48.4,31.1,18.7,25.9,18.0,4.6,72,59,39,29.67,29.28,11,4,13,0.00
2012-1-31,47.5,33.4,23.5,32.6,25.4,17.4,83,72,55,29.67,29.23,16,6,19,0.00
2012-2-1,34.5,31.4,29.1,29.7,26.6,24.1,84,82,77,29.81,29.67,9,2,10,0.00
2012-2-2,34.0,31.2,28.4,29.7,27.0,24.5,86,84,81,30.11,29.78,6,2,8,0.00
2012-2-3,33.8,29.5,24.6,26.5,24.6,19.2,85,82,70,30.20,30.11,8,3,9,0.00
2012-2-4,32.5,26.4,22.3,27.4,21.1,17.4,83,80,78,30.16,29.99,11,3,13,0.00
2012-2-5,29.7,27.6,25.7,23.7,21.4,19.4,79,77,74,30.07,29.86,8,3,11,0.00
2012-2-6,46.0,33.4,22.1,28.0,22.2,17.2,82,64,48,29.98,29.74,14,4,15,0.00
2012-2-7,30.4,22.9,11.5,19.0,6.2,-6.5,62,49,31,30.25,29.98,13,4,14,0.00
2012-2-8,35.4,19.1,6.3,3.6,-4.2,-8.7,53,37,16,30.20,29.92,10,3,12,0.00
2012-2-9,39.7,27.1,12.7,19.9,10.1,-3.6,61,48,37,29.92,29.55,23,5,23,0.00
2012-2-10,24.3,10.3,1.8,5.9,-17.3,-27.2,45,28,16,30.27,29.72,23,10,24,0.00
2012-2-11,20.1,8.5,-1.1,-10.5,-21.2,-31.8,41,24,15,30.36,30.20,20,8,21,0.00
2012-2-12,34.7,18.4,2.7,-5.0,-10.8,-15.8,48,29,14,30.21,29.79,10,3,11,0.00
2012-2-13,31.6,24.4,15.1,19.0,7.6,-10.1,73,50,26,29.79,29.42,8,3,8,0.00
2012-2-14,36.9,27.5,20.8,23.2,19.1,14.8,79,71,50,29.48,29.39,13,3,13,0.00
2012-2-15,42.4,30.4,20.5,28.3,21.9,14.5,81,71,44,29.70,29.46,8,2,8,0.00
2012-2-16,42.8,29.5,21.0,22.5,15.8,9.6,77,58,31,29.79,29.67,17,4,21,0.00
2012-2-17,41.7,31.2,23.2,24.8,16.4,5.5,74,54,40,29.84,29.63,17,5,17,0.00
2012-2-18,41.5,26.9,12.7,15.9,8.2,2.3,64,46,23,29.96,29.83,7,3,8,0.00
2012-2-19,46.2,32.1,17.1,19.8,13.1,6.5,70,47,21,29.86,29.70,11,4,12,0.00
2012-2-20,43.3,34.0,27.3,27.8,19.3,14.0,85,57,30,29.78,29.33,17,8,22,0.00
2012-2-21,39.9,32.2,26.2,30.9,24.5,15.9,85,73,61,29.33,29.20,26,6,26,0.13
2012-2-22,36.1,26.4,14.9,18.8,14.7,7.6,74,61,47,29.27,29.12,11,2,11,0.00
2012-2-23,39.6,31.1,26.2,23.9,18.8,14.5,71,60,50,29.43,29.15,8,3,11,0.00
2012-2-24,28.0,22.7,13.1,20.1,8.6,-2.4,76,55,39,29.81,29.43,24,9,24,0.00
2012-2-25,31.3,19.1,8.8,13.0,3.1,-4.6,63,50,34,29.97,29.75,12,4,13,0.00
2012-2-26,35.6,28.6,23.5,27.5,16.0,9.2,74,59,48,29.75,29.31,19,9,24,0.00
2012-2-27,33.3,23.8,17.8,15.1,10.0,5.9,67,56,40,30.13,29.72,18,6,21,0.00
2012-2-28,33.4,29.1,21.0,27.4,20.3,11.3,84,69,53,30.04,29.33,13,4,14,0.08
2012-2-29,35.1,32.7,30.9,30.7,27.6,23.3,85,81,73,29.40,28.97,14,2,26,0.05
2012-3-1,47.5,33.8,28.6,28.5,25.2,23.1,84,71,46,29.51,29.35,8,2,8,0.13
2012-3-2,43.5,30.0,22.8,27.8,20.6,14.9,83,69,44,29.43,29.26,14,4,16,0.09
2012-3-3,27.1,19.9,10.2,14.9,8.0,-2.3,73,59,47,29.59,29.27,17,9,20,0.00
2012-3-4,33.6,17.1,0.5,11.3,1.9,-10.7,64,52,30,29.82,29.58,12,4,12,0.00
2012-3-5,40.6,23.2,7.3,23.2,11.9,-2.5,71,62,47,29.92,29.52,14,5,17,0.00
2012-3-6,61.7,43.6,28.2,40.7,28.9,18.0,73,57,33,29.52,29.18,10,4,13,0.00
2012-3-7,48.7,37.7,24.4,40.4,29.6,13.0,87,73,59,29.66,29.20,17,6,18,0.06
2012-3-8,39.6,27.0,18.1,22.1,11.2,-11.7,72,53,20,30.09,29.66,25,8,30,0.00
2012-3-9,34.9,24.9,11.8,14.9,0.4,-9.0,52,36,16,30.32,29.77,13,5,14,0.00
2012-3-10,64.9,49.1,32.5,38.1,27.3,14.6,54,43,28,29.77,29.48,18,5,18,0.00
2012-3-11,66.0,53.2,41.4,44.6,33.7,28.4,62,48,37,29.62,29.39,11,5,14,0.00
2012-3-12,54.1,47.3,38.5,48.8,43.4,35.5,98,87,59,29.51,29.27,8,3,11,0.19
2012-3-13,66.2,50.3,34.5,41.7,35.3,29.5,92,61,28,29.71,29.42,11,4,14,0.01
2012-3-14,75.4,59.4,48.0,50.0,41.9,17.1,86,55,26,29.48,29.33,11,4,12,0.00
2012-3-15,67.6,51.1,40.5,38.6,26.3,15.8,61,39,22,29.67,29.48,10,4,11,0.00
2012-3-16,82.0,60.3,40.6,59.2,45.1,28.0,70,58,42,29.59,29.29,9,3,11,0.00
2012-3-17,80.6,68.2,58.5,62.4,58.2,54.6,92,72,49,29.37,29.20,17,5,19,0.00
2012-3-18,79.9,70.8,64.0,60.7,58.6,56.6,83,67,49,29.34,29.16,16,7,17,0.00
2012-3-19,80.2,68.5,60.3,61.0,59.1,56.0,99,74,46,29.30,29.07,23,7,24,0.26
2012-3-20,64.6,59.2,55.8,60.8,55.0,51.7,98,87,70,29.49,29.23,7,2,9,0.08
2012-3-21,63.5,56.5,52.9,58.4,54.2,52.3,99,92,78,29.66,29.46,9,3,14,0.12
2012-3-22,66.0,58.9,54.0,62.1,57.2,53.1,99,94,82,29.68,29.53,11,4,12,0.17
2012-3-23,73.9,62.7,54.7,63.6,57.9,52.4,99,86,56,29.57,29.42,7,2,9,0.02
2012-3-24,70.3,57.2,48.9,57.7,51.8,42.7,99,84,57,29.65,29.48,12,4,15,0.00
2012-3-25,59.9,46.7,36.3,42.4,30.8,21.4,87,58,25,29.85,29.64,13,6,17,0.00
2012-3-26,46.6,39.5,34.5,30.3,26.9,22.8,79,61,40,29.94,29.55,25,10,25,0.07
2012-3-27,69.4,53.7,42.1,48.7,39.3,27.8,73,59,31,29.55,29.20,24,11,27,0.02
2012-3-28,56.3,45.1,37.9,38.6,34.1,31.1,82,66,44,29.70,29.41,15,6,20,0.00
2012-3-29,61.5,47.7,36.7,44.0,34.9,29.5,87,63,39,29.73,29.39,14,6,18,0.04
2012-3-30,57.6,47.1,40.6,44.3,41.1,37.7,90,80,61,29.48,29.39,8,3,9,0.01
2012-3-31,50.9,46.3,41.4,46.7,43.3,39.3,98,89,82,29.50,29.35,16,4,17,0.00
2012-4-1,68.5,55.1,46.4,46.7,42.8,36.4,93,67,32,29.37,29.16,19,6,19,0.00
2012-4-2,68.4,58.7,48.9,47.4,39.5,32.4,62,49,38,29.42,29.23,17,8,21,0.00
2012-4-3,68.4,53.7,45.7,42.4,31.0,9.3,84,51,10,29.73,29.39,16,6,17,0.04
2012-4-4,68.0,52.4,39.0,27.5,19.7,5.4,59,32,10,29.73,29.49,13,5,16,0.00
2012-4-5,63.7,49.7,37.2,32.3,22.6,5.7,66,38,10,29.77,29.57,13,6,14,0.00
2012-4-6,62.6,49.2,33.3,31.5,22.5,6.1,74,40,11,29.92,29.62,11,5,14,0.00
2012-4-7,60.4,49.9,44.6,50.9,33.8,21.4,99,57,35,29.79,29.62,21,5,24,0.07
2012-4-8,63.3,48.5,32.2,27.9,17.0,3.9,63,34,10,29.87,29.64,21,6,24,0.00
2012-4-9,45.3,38.9,28.8,24.5,17.2,9.8,58,42,24,29.80,29.68,20,7,28,0.00
2012-4-10,44.2,33.6,25.7,16.2,11.5,3.0,61,42,19,29.93,29.80,17,5,20,0.00
2012-4-11,59.5,39.9,24.3,22.8,16.3,11.5,62,42,15,30.08,29.80,9,3,13,0.00
2012-4-12,65.3,48.6,28.2,32.1,16.0,4.5,82,38,10,29.86,29.56,9,3,11,0.00
2012-4-13,55.4,51.7,48.9,51.8,37.2,20.6,99,63,26,29.58,29.30,19,9,27,0.02
2012-4-14,78.6,62.1,45.7,51.7,45.7,32.0,99,62,20,29.41,29.19,8,3,10,0.01
2012-4-15,61.5,54.2,45.3,58.8,52.4,44.5,99,94,65,29.20,28.80,16,6,19,0.94
2012-4-16,45.1,37.6,32.7,44.3,31.8,26.6,99,80,59,29.83,28.89,23,8,30,0.12
2012-4-17,60.6,45.3,28.9,47.7,34.9,26.5,96,70,42,29.96,29.57,13,3,17,0.21
2012-4-18,63.9,53.9,44.6,51.4,44.8,36.1,99,73,47,29.62,29.38,15,6,18,0.27
2012-4-19,48.2,44.3,40.3,37.8,31.4,19.9,79,61,39,29.69,29.54,13,6,14,0.00
2012-4-20,62.4,46.5,31.6,37.9,24.3,16.2,81,46,19,29.77,29.59,11,3,14,0.00
2012-4-21,51.3,45.2,42.4,44.3,39.0,34.5,99,80,61,29.61,29.51,12,3,12,0.38
2012-4-22,54.9,46.6,41.7,42.9,40.6,36.2,99,81,54,29.87,29.61,9,3,9,0.02
2012-4-23,69.3,50.3,32.4,46.3,36.8,30.3,99,66,27,29.85,29.42,11,2,11,0.00
2012-4-24,79.3,61.2,48.4,47.7,40.3,32.9,77,50,19,29.43,29.12,11,2,11,0.00
2012-4-25,77.5,61.8,49.3,52.0,47.2,42.0,84,60,39,29.33,29.10,12,4,14,0.07
2012-4-26,61.2,50.9,42.6,45.3,26.4,9.0,83,45,13,29.79,29.33,14,4,18,0.00
2012-4-27,57.7,49.0,38.8,30.7,21.7,12.0,62,36,18,29.82,29.58,12,4,13,0.00
2012-4-28,51.3,44.9,39.2,39.0,31.6,17.9,94,63,31,29.84,29.56,13,5,17,0.15
2012-4-29,59.9,51.2,44.1,44.5,41.0,38.3,88,69,52,29.86,29.63,8,3,10,0.00
2012-4-30,68.5,55.0,44.4,51.7,47.2,43.6,99,77,49,29.63,29.36,8,2,9,0.01
2012-5-1,76.6,61.3,53.4,60.5,55.2,50.7,99,82,55,29.39,29.05,20,4,20,0.63
2012-5-2,84.9,68.8,55.0,64.1,58.6,54.2,99,74,42,29.33,29.06,10,2,14,0.17
2012-5-3,79.7,66.0,56.5,63.4,58.6,53.6,99,80,49,29.45,29.24,19,3,27,0.73
2012-5-4,73.2,59.3,49.1,54.6,50.7,45.5,99,75,49,29.59,29.41,14,6,16,0.02
2012-5-5,59.0,53.3,51.1,53.6,49.1,45.5,95,86,79,29.59,29.53,8,5,11,0.00
2012-5-6,67.8,59.8,49.8,58.9,56.1,49.6,99,88,72,29.60,29.42,8,2,8,0.98
2012-5-7,66.7,54.4,48.0,57.1,48.6,43.0,99,83,45,29.59,29.53,11,2,12,0.00
2012-5-18,95.0,87.3,77.9,58.9,51.0,43.8,40,29,21,29.25,29.13,15,5,17,0.00
2012-5-19,89.4,75.6,57.9,68.3,58.9,51.5,99,60,39,29.37,29.16,13,4,17,0.84
2012-5-20,65.3,55.2,46.4,57.7,49.7,38.9,99,84,40,29.75,29.32,17,5,21,0.13
2012-5-21,83.3,63.6,44.6,53.8,44.1,35.0,99,58,22,29.85,29.57,4,1,8,0.00
2012-5-22,88.2,72.3,56.8,51.3,45.1,40.4,60,40,24,29.58,29.11,14,4,17,0.00
2012-5-23,86.4,69.6,60.4,66.2,54.1,46.0,99,61,36,29.18,28.84,17,4,17,1.82
2012-5-24,63.9,59.7,56.1,62.8,57.7,50.7,99,93,69,29.27,28.91,18,3,18,2.01
2012-5-25,72.3,60.2,50.5,55.9,49.9,42.5,91,71,43,29.66,29.27,8,2,10,0.00
2012-5-26,65.1,60.4,55.6,61.3,57.5,52.8,99,90,80,29.79,29.43,21,5,25,0.34
2012-5-27,92.1,75.3,61.2,72.7,66.4,60.0,99,77,49,29.42,29.05,14,4,16,0.63
2012-5-28,82.4,69.8,56.1,66.7,59.1,43.1,99,72,40,29.28,29.11,17,3,19,0.12
2012-5-29,68.0,57.1,51.1,49.3,45.0,39.4,79,64,47,29.51,29.27,20,5,21,0.00
2012-5-30,63.7,54.5,46.0,44.7,41.9,38.9,85,64,44,29.63,29.51,12,3,14,0.00
2012-5-31,69.8,58.0,48.2,48.2,41.5,32.3,91,58,29,29.65,29.53,9,2,9,0.00
2012-6-1,78.6,61.1,43.0,50.1,39.3,20.6,97,54,12,29.57,29.28,8,1,8,0.00
2012-6-2,81.0,64.6,50.7,51.6,46.3,39.3,89,56,25,29.38,29.21,11,2,13,0.00
2012-6-3,83.7,68.8,52.2,57.6,51.8,46.3,89,58,30,29.38,29.27,6,1,6,0.00
2012-6-4,89.8,73.0,57.6,60.5,56.0,50.8,91,59,32,29.49,29.35,9,1,9,0.00
2012-6-5,64.6,60.8,58.3,57.6,56.8,56.1,94,87,76,29.49,29.43,2,0,3,0.00
2012-6-6,90.3,75.2,61.9,59.4,56.2,51.8,82,55,28,29.59,29.43,8,2,13,0.00
2012-6-7,87.8,75.7,63.0,65.1,60.3,53.5,74,60,43,29.60,29.41,7,2,10,0.00
2012-6-8,91.2,78.3,69.4,64.4,60.6,57.1,70,56,36,29.44,29.16,7,2,11,0.00
2012-6-9,93.2,81.7,71.2,61.6,56.6,52.3,59,44,28,29.26,29.04,12,3,15,0.00
2012-6-10,93.4,79.4,61.9,69.8,61.9,54.1,98,58,37,29.25,28.97,18,5,22,1.12
2012-6-11,75.9,65.4,54.7,65.9,54.0,40.9,99,70,42,29.53,29.18,17,4,17,0.01
2012-6-12,77.4,59.6,48.9,47.8,43.0,35.5,81,58,25,29.73,29.53,15,4,17,0.00
2012-6-13,77.4,63.6,52.0,54.5,49.9,46.9,88,63,42,29.67,29.41,11,2,11,0.00
2012-6-14,68.5,64.6,57.2,66.7,59.1,49.6,99,84,52,29.44,29.31,9,3,11,0.53
2012-6-15,85.5,72.4,60.8,66.0,61.7,57.7,98,72,42,29.52,29.43,9,2,10,0.00
2012-6-16,86.0,71.6,59.9,72.0,63.0,51.4,95,76,49,29.48,29.29,19,3,19,0.09
2012-6-17,80.6,66.5,54.0,66.4,56.7,51.5,98,73,40,29.41,28.98,17,2,21,0.58
2012-6-18,99.5,79.3,64.9,76.6,65.2,56.5,99,69,27,29.10,28.94,8,2,10,0.02
2012-6-19,93.4,78.5,63.7,75.1,68.0,59.2,99,72,48,29.28,29.00,13,4,14,0.30
2012-6-20,83.1,73.7,61.0,69.5,65.6,60.4,98,77,62,29.40,29.05,15,3,17,0.13
2012-6-21,81.0,68.5,59.2,61.3,56.7,52.8,99,70,40,29.53,29.39,13,4,16,0.01
2012-6-22,91.6,72.0,56.3,64.2,55.8,51.2,99,62,29,29.57,29.38,11,2,12,0.00
2012-6-23,82.4,71.9,62.6,64.1,59.7,55.0,83,67,45,29.47,29.32,9,2,11,0.00
2012-6-24,86.9,74.3,64.4,68.5,62.5,54.5,98,69,42,29.58,29.39,11,3,11,0.00
2012-6-25,83.7,69.6,57.2,56.2,51.5,44.9,82,56,29,29.73,29.46,10,2,10,0.00
2012-6-26,83.8,70.3,56.3,55.5,52.5,45.9,91,57,29,29.54,29.19,9,3,12,0.00
2012-6-27,74.3,74.3,74.3,52.8,52.8,52.8,47,47,47,29.19,29.19,3,3,3,0.00
2012-6-28,92.8,78.2,64.6,61.6,54.5,48.4,77,46,27,29.43,29.19,8,2,9,0.00
2012-6-29,96.1,78.6,59.2,67.6,61.1,55.5,92,60,28,29.42,29.18,4,1,6,0.00
2012-6-30,99.3,80.2,63.9,67.5,63.3,56.4,97,62,29,29.36,29.24,7,2,8,0.00
2012-7-1,96.8,82.0,66.9,73.8,68.7,63.2,91,67,42,29.41,29.24,8,1,10,0.00
2012-7-2,99.7,86.7,72.9,76.8,72.7,70.0,96,66,42,29.32,29.10,7,2,11,0.00
2012-7-3,100.6,84.0,67.5,80.0,73.2,65.3,99,72,45,29.31,29.09,14,2,15,0.72
2012-7-4,101.1,88.1,77.9,78.5,75.8,73.7,95,70,45,29.20,29.07,8,2,9,0.00
2012-7-5,95.0,84.2,74.5,74.8,69.3,57.7,88,64,33,29.35,29.18,11,3,12,0.00
2012-7-6,103.8,80.8,64.0,79.0,68.1,61.2,97,67,42,29.44,29.18,11,3,14,0.45
2012-7-7,88.2,74.2,61.9,65.7,61.3,55.5,97,68,35,29.60,29.45,11,3,11,0.01
2012-7-8,96.3,79.0,64.8,66.8,63.2,60.1,93,62,36,29.64,29.46,7,2,9,0.00
2012-7-9,88.2,76.3,62.1,65.3,57.6,51.0,90,57,29,29.64,29.51,8,2,12,0.00
2012-7-10,96.6,76.2,59.0,70.8,57.9,47.9,99,61,23,29.68,29.51,8,1,8,0.00
2012-7-11,92.5,77.5,62.2,64.7,59.5,53.0,89,59,28,29.65,29.42,6,1,6,0.00
2012-7-12,91.8,76.1,64.2,68.2,64.2,60.8,89,68,40,29.53,29.39,8,1,8,0.00
2012-7-13,94.6,74.6,63.5,71.6,67.1,60.5,99,79,45,29.48,29.31,18,2,24,0.41
2012-7-14,93.7,78.8,65.1,72.3,67.7,64.0,99,73,41,29.50,29.35,10,2,10,0.01
2012-7-15,96.1,81.5,66.9,77.6,69.4,65.5,99,71,41,29.52,29.34,3,1,4,0.00
2012-7-16,99.0,85.7,73.6,71.3,68.9,65.2,86,60,38,29.35,29.08,9,2,11,0.00
2012-7-17,94.1,80.1,72.3,74.4,70.9,67.2,93,75,49,29.34,29.16,11,3,14,0.01
2012-7-18,82.9,72.4,68.0,72.7,68.6,66.0,99,88,66,29.43,29.29,17,3,17,0.61
2012-7-19,88.3,75.2,67.6,71.2,67.2,65.9,95,78,49,29.55,29.40,7,2,7,0.00
2012-7-20,91.0,75.7,67.1,73.2,67.6,63.4,95,78,48,29.65,29.40,7,1,9,0.08
2012-7-21,89.8,77.7,69.1,74.3,70.6,67.4,99,80,49,29.55,29.37,6,1,9,0.20
2012-7-22,94.8,81.3,72.1,76.5,72.0,68.6,95,76,50,29.44,29.26,10,1,10,0.00
2012-7-23,97.7,81.5,72.7,75.1,70.5,65.4,99,73,40,29.41,29.30,7,2,8,0.04
2012-7-24,84.2,74.7,70.2,74.7,70.8,68.5,98,88,69,29.45,29.21,8,2,8,0.40
2012-7-25,93.6,80.4,72.3,75.8,72.2,70.4,96,77,51,29.21,29.01,14,3,14,0.00
2012-7-26,84.4,73.7,62.4,72.7,62.1,57.9,97,69,44,29.32,29.07,15,4,16,0.00
2012-7-27,86.7,70.4,60.4,63.4,60.8,58.6,99,75,43,29.57,29.32,8,2,10,0.00
2012-7-28,90.1,73.8,58.6,68.5,62.9,58.4,99,73,39,29.67,29.44,5,1,7,0.08
2012-7-29,90.0,75.2,66.7,72.5,67.9,65.7,99,81,46,29.56,29.36,4,1,8,0.14
2012-7-30,89.6,77.8,67.3,72.9,65.9,58.8,99,71,37,29.40,29.28,11,3,13,0.00
2012-7-31,93.9,76.0,61.3,68.2,63.6,59.6,99,71,35,29.52,29.36,5,1,6,0.00
2012-8-1,96.6,78.9,65.7,75.0,68.6,63.3,96,73,46,29.40,29.16,8,2,9,0.00
2012-8-2,95.9,80.1,68.7,68.3,64.5,60.1,89,62,33,29.36,29.24,7,2,13,0.00
2012-8-3,91.6,77.8,64.6,69.5,64.9,61.5,99,68,38,29.38,29.15,12,2,18,0.45
2012-8-4,84.2,70.2,64.0,67.2,61.6,56.2,99,77,42,29.44,29.20,13,2,15,0.05
2012-8-5,82.9,67.1,54.7,58.2,53.9,49.8,96,66,38,29.75,29.44,13,3,14,0.00
2012-8-6,91.4,72.7,55.0,67.8,60.5,54.2,98,70,38,29.65,29.36,7,1,8,0.00
2012-8-7,88.3,75.5,63.0,68.8,59.5,51.2,99,63,28,29.49,29.36,10,2,10,0.00
2012-8-8,75.6,67.0,60.4,65.1,61.4,57.9,97,83,67,29.56,29.42,13,3,13,0.00
2012-8-9,79.5,67.0,56.1,67.1,58.3,52.8,99,77,42,29.63,29.47,16,3,16,0.00
2012-8-10,80.8,65.7,53.2,56.7,52.6,47.6,95,67,33,29.74,29.53,10,3,11,0.00
2012-8-11,82.2,64.3,47.3,61.3,52.5,47.0,99,71,32,29.72,29.43,10,1,10,0.00
2012-8-12,70.7,63.1,57.7,62.6,59.0,56.3,98,87,66,29.54,29.48,5,1,5,0.02
2012-8-13,83.5,67.8,54.7,64.1,57.4,52.8,99,74,36,29.58,29.36,12,2,12,0.01
2012-8-14,83.7,66.7,52.3,61.1,56.1,51.4,99,72,34,29.53,29.35,4,1,4,0.00
2012-8-15,64.4,63.2,61.5,57.6,57.1,56.3,84,80,78,29.37,29.36,2,0,2,0.00
2012-8-16,70.0,63.1,52.0,63.7,52.5,47.3,86,70,45,29.53,29.26,12,6,12,0.01
2012-8-17,78.8,60.9,48.2,51.8,45.9,39.8,92,63,25,29.67,29.45,9,2,9,0.00
2012-8-18,84.2,67.9,48.6,58.0,53.1,48.3,99,64,31,29.59,29.40,7,1,9,0.11
2012-8-19,81.1,64.7,49.6,59.6,51.0,41.6,99,68,26,29.60,29.44,9,2,11,0.01
2012-8-20,83.7,61.6,43.0,57.5,45.8,36.5,99,65,21,29.64,29.44,8,1,10,0.00
2012-8-21,85.8,65.7,48.9,56.2,51.0,45.4,99,66,27,29.66,29.44,5,1,8,0.00
2012-8-22,85.8,66.4,56.3,65.2,57.5,52.1,91,75,39,29.53,29.40,5,1,8,0.09
2012-8-23,82.8,74.4,66.9,70.1,63.8,58.2,92,70,52,29.43,29.22,7,2,11,0.04
2012-8-24,91.9,77.1,62.4,72.6,67.1,59.4,98,74,49,29.38,29.21,8,2,8,0.00
2012-8-25,75.9,71.6,65.5,68.1,65.0,63.0,94,80,68,29.44,29.29,8,2,8,0.00
2012-8-26,90.7,74.2,63.1,67.9,63.7,59.0,97,73,38,29.51,29.40,6,1,8,0.00
2012-8-27,90.1,71.4,55.9,62.1,57.5,51.8,99,67,28,29.66,29.49,10,2,10,0.00
2012-8-28,89.1,72.5,59.9,68.3,62.8,57.1,94,73,47,29.66,29.40,8,1,9,0.00
2012-8-29,75.9,68.1,65.5,66.4,64.4,63.2,95,88,71,29.44,29.40,3,1,4,0.00
2012-8-30,91.0,78.9,70.2,67.9,62.9,59.9,79,59,38,29.38,29.17,6,3,6,0.00
2012-8-31,89.1,71.7,57.2,59.5,51.4,41.7,95,56,20,29.67,29.41,6,2,6,0.00
2012-9-1,88.3,71.6,59.2,55.4,50.8,46.9,77,51,27,29.70,29.44,6,2,6,0.00
2012-9-2,89.4,73.2,58.1,69.2,61.0,53.0,88,68,46,29.51,29.21,10,2,10,0.00
2012-9-3,97.9,75.0,64.0,67.7,58.8,49.0,95,62,21,29.41,29.24,6,1,6,0.00
2012-9-4,68.0,63.9,61.5,62.4,58.0,55.4,95,81,65,29.36,29.30,2,0,2,0.00
2012-9-23,43.7,40.3,37.9,31.6,30.0,29.2,73,67,58,29.78,29.75,2,0,2,0.00
2012-9-24,79.9,56.3,34.7,40.1,31.3,16.7,75,46,10,29.76,29.26,11,2,11,0.00
2012-9-25,70.3,54.7,39.6,44.3,36.8,27.0,88,56,20,29.54,29.33,8,2,11,0.00
2012-9-26,68.0,50.6,37.4,39.9,35.0,28.0,91,60,23,29.80,29.53,9,2,11,0.00
2012-9-27,73.6,50.7,30.7,46.5,33.5,19.2,99,62,13,29.94,29.71,4,1,6,0.00
2012-9-28,83.3,57.6,36.5,48.6,36.4,17.7,99,57,10,29.88,29.63,4,1,5,0.00
2012-9-29,86.7,64.1,44.8,46.8,41.4,35.5,82,49,19,29.73,29.52,6,1,8,0.00
2012-9-30,81.7,62.2,42.3,46.6,39.8,17.4,92,51,10,29.61,29.42,4,1,5,0.00
2012-10-1,76.8,60.7,52.5,48.6,41.9,34.4,76,52,27,29.52,29.40,14,5,17,0.00
2012-10-2,77.2,56.6,34.9,46.8,37.7,31.9,94,54,23,29.60,29.35,8,2,8,0.00
2012-10-3,81.0,62.7,44.6,45.4,35.9,16.6,80,46,10,29.51,29.34,10,2,10,0.00
2012-10-4,64.8,48.4,41.5,45.2,35.3,29.6,80,61,39,29.75,29.28,26,9,27,0.00
2012-10-5,45.3,39.6,32.9,32.0,26.9,24.6,77,61,47,29.78,29.71,22,9,26,0.00
2012-10-6,45.3,37.5,30.6,29.7,25.2,19.9,85,63,38,29.96,29.77,15,5,18,0.00
2012-10-7,59.5,39.4,22.3,29.4,16.9,0.8,87,49,11,29.88,29.51,8,2,11,0.00
2012-10-8,63.7,48.0,36.1,41.7,31.5,21.5,81,54,30,29.51,29.19,13,3,18,0.00
2012-10-9,50.9,44.0,36.0,39.9,32.4,23.6,90,65,43,29.62,29.35,21,6,24,0.01
2012-10-10,55.8,42.0,24.4,32.1,24.9,17.6,91,54,25,29.76,29.43,11,3,13,0.00
2012-10-11,54.1,43.8,30.7,35.4,22.6,1.1,83,47,13,30.04,29.42,17,6,18,0.00
2012-10-12,55.6,40.0,20.1,27.0,12.6,0.5,82,41,11,30.13,29.64,14,4,16,0.00
2012-10-13,52.9,50.1,47.7,52.2,45.2,12.8,99,85,23,29.64,29.26,11,3,16,0.01
2012-10-14,60.8,50.3,42.4,47.3,39.8,27.8,99,72,29,29.51,29.35,14,5,22,0.00
2012-10-15,66.9,51.2,30.9,41.4,35.5,28.3,91,58,31,29.60,29.31,7,3,10,0.00
2012-10-16,75.9,60.1,51.4,49.3,45.1,40.2,85,59,37,29.31,28.95,9,3,11,0.00
2012-10-17,64.9,53.0,46.0,50.9,46.4,41.2,95,79,56,28.96,28.73,14,4,16,0.01
2012-10-18,50.2,46.1,42.4,46.1,44.0,41.4,99,92,81,29.02,28.80,8,1,8,0.00
2012-10-19,55.0,47.5,37.6,50.1,43.7,36.5,99,88,62,29.36,29.02,8,2,11,0.00
2012-10-20,58.5,43.3,31.1,47.2,39.8,30.6,99,88,59,29.47,29.36,7,2,7,0.00
2012-10-21,72.0,53.9,41.0,50.4,44.9,40.7,99,74,39,29.51,29.36,11,4,14,0.00
2012-10-22,60.6,52.6,45.1,48.0,44.7,41.6,88,75,61,29.59,29.48,11,5,13,0.00
2012-10-23,64.0,57.0,52.2,61.2,54.7,46.0,99,92,79,29.48,29.28,8,3,10,0.47
2012-10-24,60.3,54.0,46.0,56.3,52.2,42.9,99,94,80,29.47,29.36,14,4,17,0.21
2012-10-25,46.0,38.2,33.4,43.4,34.2,24.9,99,86,61,29.79,29.32,21,10,23,0.74
2012-10-26,38.8,34.7,27.5,26.4,23.0,19.0,82,63,49,30.02,29.79,18,6,20,0.00
2012-10-27,47.8,35.3,25.2,31.1,22.6,14.8,92,63,29,30.04,29.93,10,2,10,0.00
2012-10-28,48.6,35.7,27.1,27.5,23.8,19.7,81,63,40,30.03,29.93,7,2,8,0.00
2012-10-29,45.1,37.4,29.5,28.5,24.3,20.6,71,59,50,30.00,29.90,10,3,11,0.00
2012-10-30,52.5,38.3,27.7,33.1,22.9,9.1,76,55,31,29.93,29.73,9,3,12,0.00
2012-10-31,53.1,37.3,19.0,28.3,17.3,8.7,78,47,17,29.76,29.56,11,3,12,0.00
2012-11-1,47.1,39.5,28.8,34.1,26.4,19.4,84,60,40,29.74,29.57,15,5,17,0.00
2012-11-2,39.0,32.2,21.4,28.0,22.7,16.8,88,68,54,29.86,29.73,8,2,9,0.00
2012-11-3,43.5,37.2,33.8,29.0,26.2,23.1,69,64,53,29.91,29.83,5,2,5,0.00
2012-11-4,42.8,37.8,28.2,37.7,30.7,22.9,95,76,65,29.91,29.75,6,2,9,0.02
2012-11-5,42.4,38.5,33.8,39.2,34.1,29.5,95,84,75,29.87,29.58,8,4,11,0.01
2012-11-6,43.0,39.6,37.2,39.7,36.2,32.5,99,88,73,29.64,29.42,17,6,21,0.34
2012-11-7,52.9,40.6,36.9,38.5,33.1,30.3,88,75,53,29.78,29.64,8,2,9,0.00
2012-11-8,57.9,42.7,35.8,38.1,33.1,28.7,85,69,44,29.72,29.55,11,3,11,0.00
2012-11-9,52.3,42.7,35.1,40.6,36.2,31.5,93,78,63,29.75,29.57,10,6,14,0.00
2012-11-10,64.9,50.4,43.2,56.9,47.2,38.1,98,89,68,29.57,29.07,20,5,20,0.25
2012-11-11,53.4,31.5,20.3,52.0,24.6,7.2,95,76,56,29.62,29.10,14,2,15,0.01
2012-11-12,26.8,21.3,16.7,13.7,10.1,4.2,78,61,51,29.98,29.62,17,3,21,0.00
2012-11-13,45.7,30.4,14.0,26.8,17.0,7.6,81,59,34,30.06,29.91,9,2,10,0.00
2012-11-14,56.1,41.8,30.9,31.9,27.8,23.5,75,58,33,29.93,29.78,6,2,9,0.00
2012-11-15,51.3,40.0,25.2,33.2,22.2,3.5,74,51,26,30.14,29.76,15,4,15,0.00
2012-11-16,46.8,31.8,15.1,22.9,10.5,-1.5,72,45,14,30.18,29.97,8,2,9,0.00
2012-11-17,60.3,47.0,33.1,36.3,32.3,22.9,74,57,35,29.99,29.80,19,5,19,0.00
2012-11-18,59.2,51.3,44.2,33.7,31.3,28.1,54,47,32,29.80,29.65,14,6,14,0.00
2012-11-19,62.8,50.4,38.3,37.9,35.2,31.9,83,57,38,29.70,29.62,8,3,9,0.00
2012-11-20,54.9,41.0,26.8,37.1,31.3,22.6,90,70,41,29.83,29.65,7,2,8,0.00
2012-11-21,61.0,51.9,42.4,42.2,36.0,30.3,70,55,42,29.65,29.27,13,4,14,0.00
2012-11-22,60.8,43.5,21.0,43.7,33.8,15.9,89,70,50,29.65,29.21,24,8,26,0.00
2012-11-23,28.2,19.7,12.0,15.9,8.7,2.4,82,62,44,30.06,29.65,24,11,29,0.00
2012-11-24,28.0,18.0,3.6,15.2,6.2,-5.4,69,59,49,30.05,29.48,10,3,11,0.00
2012-11-25,30.4,27.3,19.6,20.9,16.1,1.3,72,63,44,29.87,29.49,14,6,19,0.00
2012-11-26,19.8,12.8,6.4,3.6,-1.6,-5.3,65,52,38,30.13,29.87,12,5,14,0.00
2012-11-27,38.5,24.6,14.7,23.3,12.1,2.1,72,59,49,30.03,29.78,10,3,10,0.00
2012-11-28,38.3,29.3,23.7,22.2,17.8,14.2,69,62,48,30.04,29.76,11,3,13,0.00
2012-11-29,41.2,30.5,23.2,25.4,20.6,14.9,75,67,53,29.80,29.71,10,4,11,0.00
2012-11-30,34.5,31.2,26.2,28.8,24.2,18.8,84,75,71,29.88,29.71,16,5,16,0.00
2012-12-1,45.1,38.7,33.1,40.0,34.5,28.8,93,85,80,29.72,29.29,15,4,16,0.00
2012-12-2,40.3,32.9,25.5,37.6,29.8,21.7,93,88,84,29.67,29.43,11,3,11,0.00
2012-12-3,54.1,45.7,36.3,51.8,40.1,27.0,96,81,57,29.54,29.20,21,6,21,0.01
2012-12-4,41.2,28.4,18.3,27.4,12.1,3.1,63,50,34,30.08,29.54,17,7,21,0.00
2012-12-5,40.8,27.3,14.9,24.1,10.4,3.2,62,49,37,30.08,29.50,17,7,21,0.00
2012-12-6,44.8,38.3,21.6,33.4,25.5,12.7,71,60,50,29.68,29.42,17,6,19,0.00
2012-12-7,30.2,25.1,18.7,21.6,17.6,11.2,80,73,65,29.75,29.67,9,2,10,0.00
2012-12-8,35.4,25.2,20.5,23.9,18.6,15.9,82,76,60,29.75,29.67,5,1,8,0.00
2012-12-9,30.7,26.4,15.6,27.3,21.9,8.0,88,83,70,29.69,29.45,10,4,11,0.01
2012-12-10,15.6,6.8,-3.1,8.0,-4.3,-13.6,71,59,46,29.66,29.54,7,2,9,0.00
2012-12-11,20.3,9.1,-1.1,8.7,-0.7,-11.2,71,64,54,29.73,29.50,4,1,4,0.00
2012-12-12,42.3,25.8,-0.6,24.4,14.5,-11.2,79,62,45,29.73,29.53,9,2,10,0.06
2012-12-13,41.2,28.7,17.8,24.4,17.2,10.3,80,62,50,29.83,29.60,7,2,9,0.00
2012-12-14,38.3,25.8,13.5,27.5,16.4,6.8,79,68,51,29.85,29.50,8,3,8,0.00
2012-12-15,37.6,34.8,32.2,32.5,30.5,26.2,90,84,64,29.49,29.21,11,3,11,0.24
2012-12-16,33.4,23.9,18.3,30.6,18.9,10.6,90,81,70,29.52,29.26,13,2,15,0.00
2012-12-17,24.4,21.4,19.2,18.0,15.9,13.8,83,79,71,29.52,29.40,0,0,0,0.00
2012-12-18,27.3,23.4,21.2,20.6,17.6,16.3,82,78,68,29.51,29.33,0,0,0,0.00
2012-12-19,37.0,28.1,22.8,24.2,19.7,12.3,84,71,51,29.70,29.50,8,1,10,0.01
2012-12-20,26.6,20.0,10.4,15.1,10.5,0.4,73,66,58,29.79,29.57,24,9,25,0.00
2012-12-21,20.8,9.6,4.3,4.8,-2.6,-5.7,64,57,41,29.99,29.79,13,4,13,0.00
2012-12-22,32.9,16.2,5.5,11.8,3.3,-3.9,69,57,33,29.90,29.64,11,3,15,0.00
2012-12-23,21.4,13.7,6.4,7.5,0.9,-3.5,68,56,43,29.88,29.74,11,4,13,0.00
2012-12-24,18.9,12.1,2.7,3.8,-2.4,-9.7,64,52,39,30.03,29.74,13,5,14,0.00
2012-12-25,8.4,1.7,-5.1,-9.3,-12.4,-17.3,57,50,40,30.21,30.03,10,4,10,0.00
2012-12-26,23.7,9.1,-0.9,1.6,-6.8,-13.8,61,48,29,30.15,29.96,4,2,7,0.00
2012-12-27,19.4,12.5,1.6,10.4,1.9,-8.0,71,62,50,29.99,29.85,5,2,6,0.00
2012-12-28,29.1,19.0,11.1,15.4,10.2,4.2,74,68,50,29.85,29.72,5,3,6,0.00
2012-12-29,21.7,11.8,-1.1,9.8,1.3,-11.8,73,62,46,29.88,29.73,8,3,9,0.00
2012-12-30,23.7,9.9,-2.7,9.5,-1.2,-13.0,71,60,50,29.90,29.58,11,2,12,0.00
2012-12-31,16.0,7.8,-6.0,6.0,-7.9,-19.4,67,48,32,30.01,29.69,17,5,19,0.00
2013-1-1,19.2,3.9,-13.2,10.8,-8.1,-26.1,69,56,43,30.01,29.74,7,2,8,0.00